sensor_id;sensor_type;location;lat;lon;timestamp;temperature;humidity
43049;DHT22;28673;44.412;11.918;2023-04-24T00:00:15;17.50;88.00
43049;DHT22;28673;44.412;11.918;2023-04-24T00:02:43;17.50;88.10
43049;DHT22;28673;44.412;11.918;2023-04-24T00:05:16;17.40;88.10
43049;DHT22;28673;44.412;11.918;2023-04-24T00:07:44;17.30;89.40
43049;DHT22;28673;44.412;11.918;2023-04-24T00:10:11;17.40;89.30
43049;DHT22;28673;44.412;11.918;2023-04-24T00:12:37;17.40;88.90
43049;DHT22;28673;44.412;11.918;2023-04-24T00:15:04;17.30;89.30
43049;DHT22;28673;44.412;11.918;2023-04-24T00:17:31;17.30;89.50
43049;DHT22;28673;44.412;11.918;2023-04-24T00:19:57;17.20;89.50
43049;DHT22;28673;44.412;11.918;2023-04-24T00:22:28;17.10;90.00
43049;DHT22;28673;44.412;11.918;2023-04-24T00:24:54;17.00;90.10
43049;DHT22;28673;44.412;11.918;2023-04-24T00:27:20;17.00;90.10
43049;DHT22;28673;44.412;11.918;2023-04-24T00:29:47;16.90;90.20
43049;DHT22;28673;44.412;11.918;2023-04-24T00:32:13;16.90;90.20
43049;DHT22;28673;44.412;11.918;2023-04-24T00:34:39;16.80;90.30
43049;DHT22;28673;44.412;11.918;2023-04-24T00:37:05;16.70;90.20
43049;DHT22;28673;44.412;11.918;2023-04-24T00:39:32;16.70;90.20
43049;DHT22;28673;44.412;11.918;2023-04-24T00:41:58;16.70;90.20
43049;DHT22;28673;44.412;11.918;2023-04-24T00:44:25;16.60;90.20
43049;DHT22;28673;44.412;11.918;2023-04-24T00:46:51;16.60;90.20
43049;DHT22;28673;44.412;11.918;2023-04-24T00:49:22;16.50;90.30
43049;DHT22;28673;44.412;11.918;2023-04-24T00:51:47;16.50;90.40
43049;DHT22;28673;44.412;11.918;2023-04-24T00:54:15;16.50;90.50
43049;DHT22;28673;44.412;11.918;2023-04-24T00:56:42;16.40;90.60
43049;DHT22;28673;44.412;11.918;2023-04-24T00:59:09;16.40;90.60
43049;DHT22;28673;44.412;11.918;2023-04-24T01:01:36;16.40;90.70
43049;DHT22;28673;44.412;11.918;2023-04-24T01:04:03;16.40;90.70
43049;DHT22;28673;44.412;11.918;2023-04-24T01:06:29;16.40;90.80
43049;DHT22;28673;44.412;11.918;2023-04-24T01:08:58;16.40;91.00
43049;DHT22;28673;44.412;11.918;2023-04-24T01:11:25;16.40;91.00
43049;DHT22;28673;44.412;11.918;2023-04-24T01:13:51;16.40;91.20
43049;DHT22;28673;44.412;11.918;2023-04-24T01:16:17;16.40;91.20
43049;DHT22;28673;44.412;11.918;2023-04-24T01:18:45;16.40;91.30
43049;DHT22;28673;44.412;11.918;2023-04-24T01:21:14;16.40;91.40
43049;DHT22;28673;44.412;11.918;2023-04-24T01:23:43;16.30;91.50
43049;DHT22;28673;44.412;11.918;2023-04-24T01:26:09;16.30;91.60
43049;DHT22;28673;44.412;11.918;2023-04-24T01:28:35;16.30;91.70
43049;DHT22;28673;44.412;11.918;2023-04-24T01:31:01;16.20;91.70
43049;DHT22;28673;44.412;11.918;2023-04-24T01:33:27;16.20;91.80
43049;DHT22;28673;44.412;11.918;2023-04-24T01:35:54;16.20;91.90
43049;DHT22;28673;44.412;11.918;2023-04-24T01:38:19;16.10;91.90
43049;DHT22;28673;44.412;11.918;2023-04-24T01:40:46;16.10;91.90
43049;DHT22;28673;44.412;11.918;2023-04-24T01:43:12;16.10;92.00
43049;DHT22;28673;44.412;11.918;2023-04-24T01:45:39;16.00;92.00
43049;DHT22;28673;44.412;11.918;2023-04-24T01:48:04;16.00;92.00
43049;DHT22;28673;44.412;11.918;2023-04-24T01:50:31;16.00;92.10
43049;DHT22;28673;44.412;11.918;2023-04-24T01:52:57;15.90;92.30
43049;DHT22;28673;44.412;11.918;2023-04-24T01:55:22;15.90;92.40
43049;DHT22;28673;44.412;11.918;2023-04-24T01:57:49;15.80;92.40
43049;DHT22;28673;44.412;11.918;2023-04-24T02:00:15;15.70;92.50
43049;DHT22;28673;44.412;11.918;2023-04-24T02:02:41;15.70;92.60
43049;DHT22;28673;44.412;11.918;2023-04-24T02:05:08;15.60;92.70
43049;DHT22;28673;44.412;11.918;2023-04-24T02:07:35;15.60;92.80
43049;DHT22;28673;44.412;11.918;2023-04-24T02:10:02;15.60;93.00
43049;DHT22;28673;44.412;11.918;2023-04-24T02:12:29;15.60;93.40
43049;DHT22;28673;44.412;11.918;2023-04-24T02:14:55;15.60;93.40
43049;DHT22;28673;44.412;11.918;2023-04-24T02:17:21;15.50;93.40
43049;DHT22;28673;44.412;11.918;2023-04-24T02:19:47;15.50;93.60
43049;DHT22;28673;44.412;11.918;2023-04-24T02:22:12;15.50;93.80
43049;DHT22;28673;44.412;11.918;2023-04-24T02:24:39;15.60;93.90
43049;DHT22;28673;44.412;11.918;2023-04-24T02:27:06;15.60;94.00
43049;DHT22;28673;44.412;11.918;2023-04-24T02:29:32;15.60;94.10
43049;DHT22;28673;44.412;11.918;2023-04-24T02:31:58;15.60;94.10
43049;DHT22;28673;44.412;11.918;2023-04-24T02:34:24;15.60;94.30
43049;DHT22;28673;44.412;11.918;2023-04-24T02:36:50;15.60;94.30
43049;DHT22;28673;44.412;11.918;2023-04-24T02:39:16;15.70;94.50
43049;DHT22;28673;44.412;11.918;2023-04-24T02:41:43;15.70;94.70
43049;DHT22;28673;44.412;11.918;2023-04-24T02:44:09;15.80;94.90
43049;DHT22;28673;44.412;11.918;2023-04-24T02:46:38;15.80;94.80
43049;DHT22;28673;44.412;11.918;2023-04-24T02:49:06;15.80;94.90
43049;DHT22;28673;44.412;11.918;2023-04-24T02:51:32;15.80;95.00
43049;DHT22;28673;44.412;11.918;2023-04-24T02:53:58;15.80;95.10
43049;DHT22;28673;44.412;11.918;2023-04-24T02:56:24;15.80;95.10
43049;DHT22;28673;44.412;11.918;2023-04-24T02:58:50;15.90;95.20
43049;DHT22;28673;44.412;11.918;2023-04-24T03:01:16;15.90;95.20
43049;DHT22;28673;44.412;11.918;2023-04-24T03:03:42;15.90;95.30
43049;DHT22;28673;44.412;11.918;2023-04-24T03:06:07;16.00;95.30
43049;DHT22;28673;44.412;11.918;2023-04-24T03:08:34;16.00;95.30
43049;DHT22;28673;44.412;11.918;2023-04-24T03:11:00;16.00;95.40
43049;DHT22;28673;44.412;11.918;2023-04-24T03:13:26;16.00;95.70
43049;DHT22;28673;44.412;11.918;2023-04-24T03:15:56;16.00;95.80
43049;DHT22;28673;44.412;11.918;2023-04-24T03:18:22;16.10;96.00
43049;DHT22;28673;44.412;11.918;2023-04-24T03:20:50;16.10;96.10
43049;DHT22;28673;44.412;11.918;2023-04-24T03:23:15;16.10;96.50
43049;DHT22;28673;44.412;11.918;2023-04-24T03:25:41;16.00;96.50
43049;DHT22;28673;44.412;11.918;2023-04-24T03:28:09;16.00;96.60
43049;DHT22;28673;44.412;11.918;2023-04-24T03:30:44;16.00;96.70
43049;DHT22;28673;44.412;11.918;2023-04-24T03:33:11;16.00;97.10
43049;DHT22;28673;44.412;11.918;2023-04-24T03:35:44;16.00;97.40
43049;DHT22;28673;44.412;11.918;2023-04-24T03:38:11;16.00;97.70
43049;DHT22;28673;44.412;11.918;2023-04-24T03:40:59;15.90;98.20
43049;DHT22;28673;44.412;11.918;2023-04-24T03:43:45;15.90;98.30
43049;DHT22;28673;44.412;11.918;2023-04-24T03:46:13;15.80;98.50
43049;DHT22;28673;44.412;11.918;2023-04-24T03:48:43;15.80;99.20
43049;DHT22;28673;44.412;11.918;2023-04-24T03:51:10;15.80;99.20
43049;DHT22;28673;44.412;11.918;2023-04-24T03:53:39;15.70;99.60
43049;DHT22;28673;44.412;11.918;2023-04-24T03:56:07;15.70;99.60
43049;DHT22;28673;44.412;11.918;2023-04-24T03:58:33;15.70;99.70
43049;DHT22;28673;44.412;11.918;2023-04-24T04:01:02;15.70;99.60
43049;DHT22;28673;44.412;11.918;2023-04-24T04:03:57;15.70;99.70
43049;DHT22;28673;44.412;11.918;2023-04-24T04:06:25;15.70;99.60
43049;DHT22;28673;44.412;11.918;2023-04-24T04:08:53;15.70;99.70
43049;DHT22;28673;44.412;11.918;2023-04-24T04:11:19;15.80;99.70
43049;DHT22;28673;44.412;11.918;2023-04-24T04:13:45;15.80;99.70
43049;DHT22;28673;44.412;11.918;2023-04-24T04:16:16;15.80;99.90
43049;DHT22;28673;44.412;11.918;2023-04-24T04:18:46;15.80;99.90
43049;DHT22;28673;44.412;11.918;2023-04-24T04:21:12;15.80;99.90
43049;DHT22;28673;44.412;11.918;2023-04-24T04:23:38;15.80;99.90
43049;DHT22;28673;44.412;11.918;2023-04-24T04:26:28;15.80;99.90
43049;DHT22;28673;44.412;11.918;2023-04-24T04:29:08;15.80;99.90
43049;DHT22;28673;44.412;11.918;2023-04-24T04:31:39;15.80;99.90
43049;DHT22;28673;44.412;11.918;2023-04-24T04:34:13;15.80;99.90
43049;DHT22;28673;44.412;11.918;2023-04-24T04:36:41;15.80;99.90
43049;DHT22;28673;44.412;11.918;2023-04-24T04:39:20;15.80;99.90
43049;DHT22;28673;44.412;11.918;2023-04-24T04:42:08;15.80;99.90
43049;DHT22;28673;44.412;11.918;2023-04-24T04:44:40;15.80;99.90
43049;DHT22;28673;44.412;11.918;2023-04-24T04:47:09;15.80;99.90
43049;DHT22;28673;44.412;11.918;2023-04-24T04:49:38;15.80;99.90
43049;DHT22;28673;44.412;11.918;2023-04-24T04:52:09;15.80;99.90
43049;DHT22;28673;44.412;11.918;2023-04-24T04:54:35;15.90;99.90
43049;DHT22;28673;44.412;11.918;2023-04-24T04:57:01;15.90;99.90
43049;DHT22;28673;44.412;11.918;2023-04-24T04:59:31;15.90;99.90
43049;DHT22;28673;44.412;11.918;2023-04-24T05:02:03;15.90;99.90
43049;DHT22;28673;44.412;11.918;2023-04-24T05:04:30;15.90;99.90
43049;DHT22;28673;44.412;11.918;2023-04-24T05:06:56;15.90;99.90
43049;DHT22;28673;44.412;11.918;2023-04-24T05:09:23;15.90;99.90
43049;DHT22;28673;44.412;11.918;2023-04-24T05:11:56;16.00;99.90
43049;DHT22;28673;44.412;11.918;2023-04-24T05:14:23;15.90;99.90
43049;DHT22;28673;44.412;11.918;2023-04-24T05:16:49;16.00;99.90
43049;DHT22;28673;44.412;11.918;2023-04-24T05:19:19;15.90;99.90
43049;DHT22;28673;44.412;11.918;2023-04-24T05:21:45;16.00;99.90
43049;DHT22;28673;44.412;11.918;2023-04-24T05:24:11;16.00;99.90
43049;DHT22;28673;44.412;11.918;2023-04-24T05:27:06;16.00;99.90
43049;DHT22;28673;44.412;11.918;2023-04-24T05:29:37;16.00;99.90
43049;DHT22;28673;44.412;11.918;2023-04-24T05:32:04;16.00;99.90
43049;DHT22;28673;44.412;11.918;2023-04-24T05:34:31;16.10;99.90
43049;DHT22;28673;44.412;11.918;2023-04-24T05:36:57;16.10;99.90
43049;DHT22;28673;44.412;11.918;2023-04-24T05:39:23;16.10;99.90
43049;DHT22;28673;44.412;11.918;2023-04-24T05:41:51;16.00;99.90
43049;DHT22;28673;44.412;11.918;2023-04-24T05:44:17;16.00;99.90
43049;DHT22;28673;44.412;11.918;2023-04-24T05:46:43;16.00;99.90
43049;DHT22;28673;44.412;11.918;2023-04-24T05:49:10;16.00;99.90
43049;DHT22;28673;44.412;11.918;2023-04-24T05:51:37;16.10;99.90
43049;DHT22;28673;44.412;11.918;2023-04-24T05:54:05;16.10;99.90
43049;DHT22;28673;44.412;11.918;2023-04-24T05:56:31;16.10;99.90
43049;DHT22;28673;44.412;11.918;2023-04-24T05:58:58;16.10;99.90
43049;DHT22;28673;44.412;11.918;2023-04-24T06:01:24;16.20;99.90
43049;DHT22;28673;44.412;11.918;2023-04-24T06:03:59;16.20;99.90
43049;DHT22;28673;44.412;11.918;2023-04-24T06:06:26;16.20;99.90
43049;DHT22;28673;44.412;11.918;2023-04-24T06:08:56;16.10;99.90
43049;DHT22;28673;44.412;11.918;2023-04-24T06:11:24;16.10;99.90
43049;DHT22;28673;44.412;11.918;2023-04-24T06:13:50;16.10;99.90
43049;DHT22;28673;44.412;11.918;2023-04-24T06:16:43;16.10;99.90
43049;DHT22;28673;44.412;11.918;2023-04-24T06:19:19;16.00;99.90
43049;DHT22;28673;44.412;11.918;2023-04-24T06:21:46;16.00;99.90
43049;DHT22;28673;44.412;11.918;2023-04-24T06:24:14;16.00;99.90
43049;DHT22;28673;44.412;11.918;2023-04-24T06:26:42;16.00;99.90
43049;DHT22;28673;44.412;11.918;2023-04-24T06:29:08;16.00;99.90
43049;DHT22;28673;44.412;11.918;2023-04-24T06:31:35;16.00;99.90
43049;DHT22;28673;44.412;11.918;2023-04-24T06:34:05;16.00;99.90
43049;DHT22;28673;44.412;11.918;2023-04-24T06:36:31;16.00;99.90
43049;DHT22;28673;44.412;11.918;2023-04-24T06:38:59;15.90;99.90
43049;DHT22;28673;44.412;11.918;2023-04-24T06:41:26;15.90;99.90
43049;DHT22;28673;44.412;11.918;2023-04-24T06:43:52;15.90;99.90
43049;DHT22;28673;44.412;11.918;2023-04-24T06:46:17;15.90;99.90
43049;DHT22;28673;44.412;11.918;2023-04-24T06:48:43;15.90;99.90
43049;DHT22;28673;44.412;11.918;2023-04-24T06:51:09;15.90;99.90
43049;DHT22;28673;44.412;11.918;2023-04-24T06:53:35;15.90;99.90
43049;DHT22;28673;44.412;11.918;2023-04-24T06:56:01;15.90;99.90
43049;DHT22;28673;44.412;11.918;2023-04-24T06:58:27;15.90;99.90
43049;DHT22;28673;44.412;11.918;2023-04-24T07:00:53;15.90;99.90
43049;DHT22;28673;44.412;11.918;2023-04-24T07:03:19;15.80;99.90
43049;DHT22;28673;44.412;11.918;2023-04-24T07:05:45;15.80;99.90
43049;DHT22;28673;44.412;11.918;2023-04-24T07:08:11;15.80;99.90
43049;DHT22;28673;44.412;11.918;2023-04-24T07:10:38;15.80;99.90
43049;DHT22;28673;44.412;11.918;2023-04-24T07:13:04;15.80;99.90
43049;DHT22;28673;44.412;11.918;2023-04-24T07:15:30;15.80;99.90
43049;DHT22;28673;44.412;11.918;2023-04-24T07:17:56;15.80;99.90
43049;DHT22;28673;44.412;11.918;2023-04-24T07:20:22;15.90;99.90
43049;DHT22;28673;44.412;11.918;2023-04-24T07:22:52;15.90;99.90
43049;DHT22;28673;44.412;11.918;2023-04-24T07:25:19;15.90;99.90
43049;DHT22;28673;44.412;11.918;2023-04-24T07:27:45;15.90;99.90
43049;DHT22;28673;44.412;11.918;2023-04-24T07:30:11;15.90;99.90
43049;DHT22;28673;44.412;11.918;2023-04-24T07:32:37;16.10;99.90
43049;DHT22;28673;44.412;11.918;2023-04-24T07:35:03;16.10;99.90
43049;DHT22;28673;44.412;11.918;2023-04-24T07:37:29;16.10;99.90
43049;DHT22;28673;44.412;11.918;2023-04-24T07:39:56;16.20;99.90
43049;DHT22;28673;44.412;11.918;2023-04-24T07:42:21;16.30;99.90
43049;DHT22;28673;44.412;11.918;2023-04-24T07:44:47;16.40;99.90
43049;DHT22;28673;44.412;11.918;2023-04-24T07:47:13;16.50;99.90
43049;DHT22;28673;44.412;11.918;2023-04-24T07:49:42;16.70;99.90
43049;DHT22;28673;44.412;11.918;2023-04-24T07:52:08;16.80;99.90
43049;DHT22;28673;44.412;11.918;2023-04-24T07:54:34;17.00;99.90
43049;DHT22;28673;44.412;11.918;2023-04-24T07:57:00;17.10;99.90
43049;DHT22;28673;44.412;11.918;2023-04-24T07:59:26;17.30;99.90
43049;DHT22;28673;44.412;11.918;2023-04-24T08:01:52;17.50;99.90
43049;DHT22;28673;44.412;11.918;2023-04-24T08:04:19;17.70;99.90
43049;DHT22;28673;44.412;11.918;2023-04-24T08:06:48;17.90;99.90
43049;DHT22;28673;44.412;11.918;2023-04-24T08:09:14;18.10;99.90
43049;DHT22;28673;44.412;11.918;2023-04-24T08:11:40;18.30;99.90
43049;DHT22;28673;44.412;11.918;2023-04-24T08:14:05;18.50;99.90
43049;DHT22;28673;44.412;11.918;2023-04-24T08:16:33;18.70;99.90
43049;DHT22;28673;44.412;11.918;2023-04-24T08:18:59;18.90;99.90
43049;DHT22;28673;44.412;11.918;2023-04-24T08:21:25;19.10;99.90
43049;DHT22;28673;44.412;11.918;2023-04-24T08:23:52;19.30;99.90
43049;DHT22;28673;44.412;11.918;2023-04-24T08:26:18;19.50;99.90
43049;DHT22;28673;44.412;11.918;2023-04-24T08:28:44;19.60;99.90
43049;DHT22;28673;44.412;11.918;2023-04-24T08:31:10;19.70;99.90
43049;DHT22;28673;44.412;11.918;2023-04-24T08:33:36;19.90;99.90
43049;DHT22;28673;44.412;11.918;2023-04-24T08:36:05;20.00;99.90
43049;DHT22;28673;44.412;11.918;2023-04-24T08:38:31;20.10;99.90
43049;DHT22;28673;44.412;11.918;2023-04-24T08:40:59;20.10;99.90
43049;DHT22;28673;44.412;11.918;2023-04-24T08:43:28;20.10;99.90
43049;DHT22;28673;44.412;11.918;2023-04-24T08:45:57;20.00;98.70
43049;DHT22;28673;44.412;11.918;2023-04-24T08:48:23;20.10;99.90
43049;DHT22;28673;44.412;11.918;2023-04-24T08:50:50;20.20;99.90
43049;DHT22;28673;44.412;11.918;2023-04-24T08:53:17;20.40;99.90
43049;DHT22;28673;44.412;11.918;2023-04-24T08:55:44;20.60;99.90
43049;DHT22;28673;44.412;11.918;2023-04-24T08:58:11;20.80;99.90
43049;DHT22;28673;44.412;11.918;2023-04-24T09:00:39;21.00;98.00
43049;DHT22;28673;44.412;11.918;2023-04-24T09:03:06;21.10;98.90
43049;DHT22;28673;44.412;11.918;2023-04-24T09:05:32;21.30;99.00
43049;DHT22;28673;44.412;11.918;2023-04-24T09:07:59;21.50;98.60
43049;DHT22;28673;44.412;11.918;2023-04-24T09:10:27;21.70;98.40
43049;DHT22;28673;44.412;11.918;2023-04-24T09:12:56;22.00;98.20
43049;DHT22;28673;44.412;11.918;2023-04-24T09:15:24;22.10;98.00
43049;DHT22;28673;44.412;11.918;2023-04-24T09:17:50;22.20;97.40
43049;DHT22;28673;44.412;11.918;2023-04-24T09:20:16;22.40;97.60
43049;DHT22;28673;44.412;11.918;2023-04-24T09:22:42;22.60;97.10
43049;DHT22;28673;44.412;11.918;2023-04-24T09:25:10;22.80;96.70
43049;DHT22;28673;44.412;11.918;2023-04-24T09:27:42;23.00;96.60
43049;DHT22;28673;44.412;11.918;2023-04-24T09:30:09;23.30;96.20
43049;DHT22;28673;44.412;11.918;2023-04-24T09:32:36;23.50;95.80
43049;DHT22;28673;44.412;11.918;2023-04-24T09:37:35;23.90;94.90
43049;DHT22;28673;44.412;11.918;2023-04-24T09:40:27;24.10;94.70
43049;DHT22;28673;44.412;11.918;2023-04-24T09:42:56;24.30;95.40
43049;DHT22;28673;44.412;11.918;2023-04-24T09:45:28;24.50;94.70
43049;DHT22;28673;44.412;11.918;2023-04-24T09:47:58;24.80;94.80
43049;DHT22;28673;44.412;11.918;2023-04-24T09:50:23;25.00;94.00
43049;DHT22;28673;44.412;11.918;2023-04-24T09:53:01;25.20;93.50
43049;DHT22;28673;44.412;11.918;2023-04-24T09:55:27;25.40;93.60
43049;DHT22;28673;44.412;11.918;2023-04-24T09:57:59;25.40;93.20
43049;DHT22;28673;44.412;11.918;2023-04-24T10:00:32;25.40;93.00
43049;DHT22;28673;44.412;11.918;2023-04-24T10:03:04;25.50;92.70
43049;DHT22;28673;44.412;11.918;2023-04-24T10:05:36;25.60;92.30
43049;DHT22;28673;44.412;11.918;2023-04-24T10:10:29;25.60;92.20
43049;DHT22;28673;44.412;11.918;2023-04-24T10:12:55;25.60;91.60
43049;DHT22;28673;44.412;11.918;2023-04-24T10:15:21;25.40;91.30
43049;DHT22;28673;44.412;11.918;2023-04-24T10:17:49;25.00;90.70
43049;DHT22;28673;44.412;11.918;2023-04-24T10:20:25;24.60;91.00
43049;DHT22;28673;44.412;11.918;2023-04-24T10:22:53;24.30;91.60
43049;DHT22;28673;44.412;11.918;2023-04-24T10:25:25;23.90;92.20
43049;DHT22;28673;44.412;11.918;2023-04-24T10:27:52;23.60;92.80
43049;DHT22;28673;44.412;11.918;2023-04-24T10:30:19;23.30;93.20
43049;DHT22;28673;44.412;11.918;2023-04-24T10:32:45;23.00;93.80
43049;DHT22;28673;44.412;11.918;2023-04-24T10:35:13;22.70;94.40
43049;DHT22;28673;44.412;11.918;2023-04-24T10:37:50;22.40;94.50
43049;DHT22;28673;44.412;11.918;2023-04-24T10:40:18;22.00;94.90
43049;DHT22;28673;44.412;11.918;2023-04-24T10:42:47;21.50;95.10
43049;DHT22;28673;44.412;11.918;2023-04-24T10:45:21;21.10;95.80
43049;DHT22;28673;44.412;11.918;2023-04-24T10:48:01;20.80;95.80
43049;DHT22;28673;44.412;11.918;2023-04-24T10:50:28;20.50;96.40
43049;DHT22;28673;44.412;11.918;2023-04-24T10:53:06;20.30;96.80
43049;DHT22;28673;44.412;11.918;2023-04-24T10:56:08;20.10;98.50
43049;DHT22;28673;44.412;11.918;2023-04-24T10:58:49;20.00;99.40
43049;DHT22;28673;44.412;11.918;2023-04-24T11:01:35;20.10;98.90
43049;DHT22;28673;44.412;11.918;2023-04-24T11:04:03;20.40;99.10
43049;DHT22;28673;44.412;11.918;2023-04-24T11:06:34;20.70;98.20
43049;DHT22;28673;44.412;11.918;2023-04-24T11:09:07;20.90;97.00
43049;DHT22;28673;44.412;11.918;2023-04-24T11:11:36;21.30;96.30
43049;DHT22;28673;44.412;11.918;2023-04-24T11:14:04;21.80;95.40
43049;DHT22;28673;44.412;11.918;2023-04-24T11:19:18;22.40;93.70
43049;DHT22;28673;44.412;11.918;2023-04-24T11:22:03;22.80;93.70
43049;DHT22;28673;44.412;11.918;2023-04-24T11:27:29;23.40;92.90
43049;DHT22;28673;44.412;11.918;2023-04-24T11:32:27;23.70;92.00
43049;DHT22;28673;44.412;11.918;2023-04-24T11:37:41;23.80;91.60
43049;DHT22;28673;44.412;11.918;2023-04-24T11:40:09;23.90;92.00
43049;DHT22;28673;44.412;11.918;2023-04-24T11:42:36;24.00;91.30
43049;DHT22;28673;44.412;11.918;2023-04-24T11:45:09;24.30;92.10
43049;DHT22;28673;44.412;11.918;2023-04-24T11:47:35;24.60;92.20
43049;DHT22;28673;44.412;11.918;2023-04-24T11:50:03;24.80;92.00
43049;DHT22;28673;44.412;11.918;2023-04-24T11:52:33;24.90;91.20
43049;DHT22;28673;44.412;11.918;2023-04-24T11:55:05;25.10;90.70
43049;DHT22;28673;44.412;11.918;2023-04-24T11:57:32;25.20;91.00
43049;DHT22;28673;44.412;11.918;2023-04-24T12:00:03;25.30;91.00
43049;DHT22;28673;44.412;11.918;2023-04-24T12:02:37;25.40;91.00
43049;DHT22;28673;44.412;11.918;2023-04-24T12:05:03;25.50;90.40
43049;DHT22;28673;44.412;11.918;2023-04-24T12:07:40;25.50;89.60
43049;DHT22;28673;44.412;11.918;2023-04-24T12:10:08;25.60;90.50
43049;DHT22;28673;44.412;11.918;2023-04-24T12:12:35;25.90;89.40
43049;DHT22;28673;44.412;11.918;2023-04-24T12:15:06;26.00;89.80
43049;DHT22;28673;44.412;11.918;2023-04-24T12:17:33;26.20;89.00
43049;DHT22;28673;44.412;11.918;2023-04-24T12:22:42;26.70;88.70
43049;DHT22;28673;44.412;11.918;2023-04-24T12:25:10;26.90;88.50
43049;DHT22;28673;44.412;11.918;2023-04-24T12:27:36;27.20;87.80
43049;DHT22;28673;44.412;11.918;2023-04-24T12:30:04;27.40;87.70
43049;DHT22;28673;44.412;11.918;2023-04-24T12:32:31;27.60;87.00
43049;DHT22;28673;44.412;11.918;2023-04-24T12:34:58;28.00;86.80
43049;DHT22;28673;44.412;11.918;2023-04-24T12:37:32;28.30;86.60
43049;DHT22;28673;44.412;11.918;2023-04-24T12:40:00;28.50;85.20
43049;DHT22;28673;44.412;11.918;2023-04-24T12:42:30;28.40;83.90
43049;DHT22;28673;44.412;11.918;2023-04-24T12:44:57;28.20;84.30
43049;DHT22;28673;44.412;11.918;2023-04-24T12:47:25;28.00;84.80
43049;DHT22;28673;44.412;11.918;2023-04-24T12:49:51;27.70;84.50
43049;DHT22;28673;44.412;11.918;2023-04-24T12:52:29;27.60;84.50
43049;DHT22;28673;44.412;11.918;2023-04-24T12:54:57;27.50;84.00
43049;DHT22;28673;44.412;11.918;2023-04-24T12:57:24;27.60;84.40
43049;DHT22;28673;44.412;11.918;2023-04-24T12:59:56;27.70;82.60
43049;DHT22;28673;44.412;11.918;2023-04-24T13:02:27;27.70;78.70
43049;DHT22;28673;44.412;11.918;2023-04-24T13:04:53;27.60;80.50
43049;DHT22;28673;44.412;11.918;2023-04-24T13:07:20;27.50;81.50
43049;DHT22;28673;44.412;11.918;2023-04-24T13:09:47;27.50;81.70
43049;DHT22;28673;44.412;11.918;2023-04-24T13:12:13;27.60;82.10
43049;DHT22;28673;44.412;11.918;2023-04-24T13:14:40;27.80;81.90
43049;DHT22;28673;44.412;11.918;2023-04-24T13:17:06;27.90;81.50
43049;DHT22;28673;44.412;11.918;2023-04-24T13:19:40;27.80;81.40
43049;DHT22;28673;44.412;11.918;2023-04-24T13:22:06;27.80;76.80
43049;DHT22;28673;44.412;11.918;2023-04-24T13:24:33;27.90;77.80
43049;DHT22;28673;44.412;11.918;2023-04-24T13:26:59;28.00;76.10
43049;DHT22;28673;44.412;11.918;2023-04-24T13:29:26;27.90;72.90
43049;DHT22;28673;44.412;11.918;2023-04-24T13:31:53;28.00;73.50
43049;DHT22;28673;44.412;11.918;2023-04-24T13:34:21;28.00;73.90
43049;DHT22;28673;44.412;11.918;2023-04-24T13:36:47;28.10;74.70
43049;DHT22;28673;44.412;11.918;2023-04-24T13:39:13;28.30;74.50
43049;DHT22;28673;44.412;11.918;2023-04-24T13:41:39;28.40;73.70
43049;DHT22;28673;44.412;11.918;2023-04-24T13:44:06;28.60;74.20
43049;DHT22;28673;44.412;11.918;2023-04-24T13:46:32;28.60;73.60
43049;DHT22;28673;44.412;11.918;2023-04-24T13:48:58;28.60;72.60
43049;DHT22;28673;44.412;11.918;2023-04-24T13:51:27;28.60;73.50
43049;DHT22;28673;44.412;11.918;2023-04-24T13:53:53;28.70;72.20
43049;DHT22;28673;44.412;11.918;2023-04-24T13:56:20;28.90;72.50
43049;DHT22;28673;44.412;11.918;2023-04-24T13:58:48;29.10;71.40
43049;DHT22;28673;44.412;11.918;2023-04-24T14:01:14;29.40;70.90
43049;DHT22;28673;44.412;11.918;2023-04-24T14:03:41;29.40;71.30
43049;DHT22;28673;44.412;11.918;2023-04-24T14:06:08;29.20;70.40
43049;DHT22;28673;44.412;11.918;2023-04-24T14:08:35;29.10;71.60
43049;DHT22;28673;44.412;11.918;2023-04-24T14:11:00;28.90;71.50
43049;DHT22;28673;44.412;11.918;2023-04-24T14:13:27;28.80;69.40
43049;DHT22;28673;44.412;11.918;2023-04-24T14:15:53;28.70;72.00
43049;DHT22;28673;44.412;11.918;2023-04-24T14:18:19;28.60;73.10
43049;DHT22;28673;44.412;11.918;2023-04-24T14:20:45;28.40;69.10
43049;DHT22;28673;44.412;11.918;2023-04-24T14:23:11;28.40;71.60
43049;DHT22;28673;44.412;11.918;2023-04-24T14:25:37;28.50;72.00
43049;DHT22;28673;44.412;11.918;2023-04-24T14:28:03;28.60;71.50
43049;DHT22;28673;44.412;11.918;2023-04-24T14:30:29;28.60;74.00
43049;DHT22;28673;44.412;11.918;2023-04-24T14:32:54;28.60;72.50
43049;DHT22;28673;44.412;11.918;2023-04-24T14:35:21;28.60;72.00
43049;DHT22;28673;44.412;11.918;2023-04-24T14:37:47;28.40;72.10
43049;DHT22;28673;44.412;11.918;2023-04-24T14:40:13;27.90;74.10
43049;DHT22;28673;44.412;11.918;2023-04-24T14:42:39;27.50;74.90
43049;DHT22;28673;44.412;11.918;2023-04-24T14:45:06;27.20;75.50
43049;DHT22;28673;44.412;11.918;2023-04-24T14:47:33;26.60;75.60
43049;DHT22;28673;44.412;11.918;2023-04-24T14:49:59;26.10;76.40
43049;DHT22;28673;44.412;11.918;2023-04-24T14:52:25;25.80;77.60
43049;DHT22;28673;44.412;11.918;2023-04-24T14:54:51;25.60;78.90
43049;DHT22;28673;44.412;11.918;2023-04-24T14:57:17;25.60;78.70
43049;DHT22;28673;44.412;11.918;2023-04-24T14:59:43;25.40;79.20
43049;DHT22;28673;44.412;11.918;2023-04-24T15:02:08;25.50;80.50
43049;DHT22;28673;44.412;11.918;2023-04-24T15:04:34;25.40;78.90
43049;DHT22;28673;44.412;11.918;2023-04-24T15:07:00;25.50;79.10
43049;DHT22;28673;44.412;11.918;2023-04-24T15:09:26;25.70;78.20
43049;DHT22;28673;44.412;11.918;2023-04-24T15:11:52;25.80;77.50
43049;DHT22;28673;44.412;11.918;2023-04-24T15:14:18;25.90;77.50
43049;DHT22;28673;44.412;11.918;2023-04-24T15:16:44;25.80;76.60
43049;DHT22;28673;44.412;11.918;2023-04-24T15:19:10;25.50;76.30
43049;DHT22;28673;44.412;11.918;2023-04-24T15:21:37;25.20;75.90
43049;DHT22;28673;44.412;11.918;2023-04-24T15:24:04;24.80;75.90
43049;DHT22;28673;44.412;11.918;2023-04-24T15:26:31;24.40;76.10
43049;DHT22;28673;44.412;11.918;2023-04-24T15:28:57;24.00;77.40
43049;DHT22;28673;44.412;11.918;2023-04-24T15:31:22;23.70;78.10
43049;DHT22;28673;44.412;11.918;2023-04-24T15:33:49;23.50;78.20
43049;DHT22;28673;44.412;11.918;2023-04-24T15:36:16;23.30;78.80
43049;DHT22;28673;44.412;11.918;2023-04-24T15:38:43;23.10;79.00